Walls, Mississippi
Current Conditions -  °F | °C
As of 8:54 AM on Friday 19 Dec 2014 (Local Time) from KMEM Reporting Station
Overcast Overcast  
Wind Chill: 38°   Ceiling: 3500
Heat Index: 42°   Visibility: 10mi
Dew Point: 34°   Wind: 6mph
Humidity: 73%   Direction: 70°ENE
Pressure: 30.27"   Gusts: NA
Location:  34.94°N, 90.09°W
Report Text: KMEM 191454Z 07005KT 10SM OVC035 06/01 A3027 RMK AO2 SLP250 T00560011 53012 $
Loading
Personal Weather Stations






























Interactive Weather Map New forecast layout! Learn more

10-Day Weather Forecast

Advertisements
Track Severe Weather on mobile